Time,TemperatureF,DewpointF,PressureIn,WindDirection,WindDirectionDegrees,WindSpeedMPH,WindSpeedGustMPH,Humidity,HourlyPrecipIn,Conditions,Clouds,dailyrainin,SolarRadiationWatts/m^2,SoftwareType,DateUTC
2013-02-22 00:01:00,31.0,23.0,-100.00,ESE,120,4.0,7.0,70,-99.99,,,0.00,0.000000,,2013-02-22 07:01:00,
2013-02-22 00:11:00,31.0,23.0,-100.00,ESE,120,4.0,7.0,70,-99.99,,,0.00,0.000000,,2013-02-22 07:11:00,
2013-02-22 00:42:00,31.0,24.0,-100.00,South,182,3.0,6.0,74,-99.99,,,0.00,0.000000,,2013-02-22 07:42:00,
2013-02-22 00:52:00,31.0,24.0,-100.00,South,182,3.0,6.0,74,-99.99,,,0.00,0.000000,,2013-02-22 07:52:00,
2013-02-22 01:01:00,31.0,24.0,-100.00,South,182,3.0,6.0,74,-99.99,,,0.00,0.000000,,2013-02-22 08:01:00,
2013-02-22 01:11:00,31.0,24.0,-100.00,South,182,3.0,6.0,74,-99.99,,,0.00,0.000000,,2013-02-22 08:11:00,
2013-02-22 01:41:00,30.0,23.0,-100.00,SSE,164,3.0,6.0,75,-99.99,,,0.00,0.000000,,2013-02-22 08:41:00,
2013-02-22 01:52:00,30.0,23.0,-100.00,SSE,164,3.0,6.0,75,-99.99,,,0.00,0.000000,,2013-02-22 08:52:00,
2013-02-22 02:03:00,30.0,23.0,-100.00,SSE,164,3.0,6.0,75,-99.99,,,0.00,0.000000,,2013-02-22 09:03:00,
2013-02-22 02:11:00,30.0,23.0,-100.00,SSE,164,3.0,6.0,75,-99.99,,,0.00,0.000000,,2013-02-22 09:11:00,
2013-02-22 02:41:00,30.0,24.0,-100.00,South,172,2.0,4.0,78,-99.99,,,-99.99,0.000000,,2013-02-22 09:41:00,
2013-02-22 02:52:00,30.0,24.0,-100.00,South,172,2.0,4.0,78,-99.99,,,-99.99,0.000000,,2013-02-22 09:52:00,
2013-02-22 03:01:00,30.0,24.0,-100.00,South,172,2.0,4.0,78,-99.99,,,-99.99,0.000000,,2013-02-22 10:01:00,
2013-02-22 03:11:00,30.0,24.0,-100.00,South,172,2.0,4.0,78,-99.99,,,-99.99,0.000000,,2013-02-22 10:11:00,
2013-02-22 03:42:00,31.0,24.0,-100.00,SSW,198,1.0,4.0,75,-99.99,,,0.00,0.000000,,2013-02-22 10:42:00,
2013-02-22 03:52:00,31.0,24.0,-100.00,SSW,198,1.0,4.0,75,-99.99,,,0.00,0.000000,,2013-02-22 10:52:00,
2013-02-22 04:01:00,31.0,24.0,-100.00,SSW,198,1.0,4.0,75,-99.99,,,0.00,0.000000,,2013-02-22 11:01:00,
2013-02-22 04:11:00,31.0,24.0,-100.00,SSW,198,1.0,4.0,75,-99.99,,,0.00,0.000000,,2013-02-22 11:11:00,
2013-02-22 04:42:00,30.0,23.0,-100.00,SW,216,1.0,3.0,76,-99.99,,,0.00,0.000000,,2013-02-22 11:42:00,
2013-02-22 04:52:00,30.0,23.0,-100.00,SW,216,1.0,3.0,76,-99.99,,,0.00,0.000000,,2013-02-22 11:52:00,
2013-02-22 05:02:00,30.0,23.0,-100.00,SW,216,1.0,3.0,76,-99.99,,,0.00,0.000000,,2013-02-22 12:02:00,
2013-02-22 05:11:00,30.0,23.0,-100.00,SW,216,1.0,3.0,76,-99.99,,,0.00,0.000000,,2013-02-22 12:11:00,
2013-02-22 05:42:00,29.0,24.0,-100.00,SE,145,5.0,8.0,82,-99.99,,,0.00,0.000000,,2013-02-22 12:42:00,
2013-02-22 05:52:00,29.0,24.0,-100.00,SE,145,5.0,8.0,82,-99.99,,,0.00,0.000000,,2013-02-22 12:52:00,
2013-02-22 06:01:00,29.0,24.0,-100.00,SE,145,5.0,8.0,82,-99.99,,,0.00,0.000000,,2013-02-22 13:01:00,
2013-02-22 06:11:00,29.0,24.0,-100.00,SE,145,5.0,8.0,82,-99.99,,,0.00,0.000000,,2013-02-22 13:11:00,
2013-02-22 06:42:00,28.0,23.0,-100.00,SSE,160,3.0,5.0,79,-99.99,,,0.00,0.000000,,2013-02-22 13:42:00,
2013-02-22 06:52:00,28.0,23.0,-100.00,SSE,160,3.0,5.0,79,-99.99,,,0.00,0.000000,,2013-02-22 13:52:00,
2013-02-22 07:01:00,28.0,23.0,-100.00,SSE,160,3.0,5.0,79,-99.99,,,0.00,0.000000,,2013-02-22 14:01:00,
2013-02-22 07:11:00,28.0,23.0,-100.00,SSE,160,3.0,5.0,79,-99.99,,,0.00,0.000000,,2013-02-22 14:11:00,
2013-02-22 07:42:00,30.0,22.0,-100.00,SSE,160,4.0,7.0,72,-99.99,,,0.00,0.230000,,2013-02-22 14:42:00,
2013-02-22 07:53:00,30.0,22.0,-100.00,SSE,160,4.0,7.0,72,-99.99,,,0.00,0.230000,,2013-02-22 14:53:00,
2013-02-22 08:01:00,30.0,22.0,-100.00,SSE,160,4.0,7.0,72,-99.99,,,0.00,0.230000,,2013-02-22 15:01:00,
2013-02-22 08:11:00,30.0,22.0,-100.00,SSE,160,4.0,7.0,72,-99.99,,,0.00,0.230000,,2013-02-22 15:11:00,
2013-02-22 08:41:00,30.0,22.0,-100.00,South,169,1.0,6.0,72,-99.99,,,0.00,26.959999,,2013-02-22 15:41:00,
2013-02-22 08:52:00,30.0,22.0,-100.00,South,169,1.0,6.0,72,-99.99,,,0.00,26.959999,,2013-02-22 15:52:00,
2013-02-22 09:01:00,30.0,22.0,-100.00,South,169,1.0,6.0,72,-99.99,,,0.00,26.959999,,2013-02-22 16:01:00,
2013-02-22 09:11:00,30.0,22.0,-100.00,South,169,1.0,6.0,72,-99.99,,,0.00,26.959999,,2013-02-22 16:11:00,
2013-02-22 09:42:00,33.0,23.0,-100.00,South,172,6.0,13.0,65,-99.99,,,0.00,163.169998,,2013-02-22 16:42:00,
2013-02-22 09:52:00,33.0,23.0,-100.00,South,172,6.0,13.0,65,-99.99,,,0.00,163.169998,,2013-02-22 16:52:00,
2013-02-22 10:01:00,33.0,23.0,-100.00,South,172,6.0,13.0,65,-99.99,,,0.00,163.169998,,2013-02-22 17:01:00,
2013-02-22 10:11:00,33.0,23.0,-100.00,South,172,6.0,13.0,65,-99.99,,,0.00,163.169998,,2013-02-22 17:11:00,
2013-02-22 10:42:00,37.0,22.0,-100.00,South,177,6.0,15.0,54,-99.99,,,0.00,382.359985,,2013-02-22 17:42:00,
2013-02-22 10:52:00,37.0,22.0,-100.00,South,177,6.0,15.0,54,-99.99,,,0.00,382.359985,,2013-02-22 17:52:00,
2013-02-22 11:01:00,37.0,22.0,-100.00,South,177,6.0,15.0,54,-99.99,,,0.00,382.359985,,2013-02-22 18:01:00,
2013-02-22 11:11:00,37.0,22.0,-100.00,South,177,6.0,15.0,54,-99.99,,,0.00,382.359985,,2013-02-22 18:11:00,
2013-02-22 11:42:00,38.0,21.0,-100.00,South,174,7.0,15.0,49,-99.99,,,0.00,374.579987,,2013-02-22 18:42:00,
2013-02-22 11:52:00,38.0,21.0,-100.00,South,174,7.0,15.0,49,-99.99,,,0.00,374.579987,,2013-02-22 18:52:00,
2013-02-22 12:01:00,38.0,21.0,-100.00,South,174,7.0,15.0,49,-99.99,,,0.00,374.579987,,2013-02-22 19:01:00,
2013-02-22 12:11:00,38.0,21.0,-100.00,South,174,7.0,15.0,49,-99.99,,,0.00,374.579987,,2013-02-22 19:11:00,
2013-02-22 12:41:00,39.0,20.0,-100.00,South,172,8.0,18.0,46,-99.99,,,0.00,305.079987,,2013-02-22 19:41:00,
2013-02-22 12:52:00,39.0,20.0,-100.00,South,172,8.0,18.0,46,-99.99,,,0.00,305.079987,,2013-02-22 19:52:00,
2013-02-22 13:01:00,39.0,20.0,-100.00,South,172,8.0,18.0,46,-99.99,,,0.00,305.079987,,2013-02-22 20:01:00,
2013-02-22 13:11:00,39.0,20.0,-100.00,South,172,8.0,18.0,46,-99.99,,,0.00,305.079987,,2013-02-22 20:11:00,
2013-02-22 13:41:00,41.0,19.0,-100.00,South,190,4.0,13.0,41,-99.99,,,0.00,356.679993,,2013-02-22 20:41:00,
2013-02-22 13:52:00,41.0,19.0,-100.00,South,190,4.0,13.0,41,-99.99,,,0.00,356.679993,,2013-02-22 20:52:00,
2013-02-22 14:01:00,41.0,19.0,-100.00,South,190,4.0,13.0,41,-99.99,,,0.00,356.679993,,2013-02-22 21:01:00,
2013-02-22 14:11:00,41.0,19.0,-100.00,South,190,4.0,13.0,41,-99.99,,,0.00,356.679993,,2013-02-22 21:11:00,
2013-02-22 14:42:00,40.0,20.0,-100.00,South,174,8.0,19.0,43,-99.99,,,0.00,318.679993,,2013-02-22 21:42:00,
2013-02-22 14:52:00,40.0,20.0,-100.00,South,174,8.0,19.0,43,-99.99,,,0.00,318.679993,,2013-02-22 21:52:00,
2013-02-22 15:01:00,40.0,20.0,-100.00,South,174,8.0,19.0,43,-99.99,,,0.00,318.679993,,2013-02-22 22:01:00,
2013-02-22 15:11:00,40.0,20.0,-100.00,South,174,8.0,19.0,43,-99.99,,,0.00,318.679993,,2013-02-22 22:11:00,
2013-02-22 15:41:00,41.0,21.0,-100.00,South,173,7.0,18.0,44,-99.99,,,0.00,192.460007,,2013-02-22 22:41:00,
2013-02-22 15:52:00,41.0,21.0,-100.00,South,173,7.0,18.0,44,-99.99,,,0.00,192.460007,,2013-02-22 22:52:00,
2013-02-22 16:01:00,41.0,21.0,-100.00,South,173,7.0,18.0,44,-99.99,,,0.00,192.460007,,2013-02-22 23:01:00,
2013-02-22 16:11:00,41.0,21.0,-100.00,South,173,7.0,18.0,44,-99.99,,,0.00,192.460007,,2013-02-22 23:11:00,
2013-02-22 16:41:00,42.0,23.0,-100.00,South,175,7.0,16.0,45,-99.99,,,0.00,298.799988,,2013-02-22 23:41:00,
2013-02-22 16:52:00,42.0,23.0,-100.00,South,175,7.0,16.0,45,-99.99,,,0.00,298.799988,,2013-02-22 23:52:00,
2013-02-22 17:01:00,42.0,23.0,-100.00,South,175,7.0,16.0,45,-99.99,,,0.00,298.799988,,2013-02-23 00:01:00,
2013-02-22 17:11:00,42.0,23.0,-100.00,South,175,7.0,16.0,45,-99.99,,,0.00,298.799988,,2013-02-23 00:11:00,
2013-02-22 17:41:00,40.0,23.0,-100.00,SSE,167,9.0,19.0,50,-99.99,,,0.00,46.720001,,2013-02-23 00:41:00,
2013-02-22 17:52:00,40.0,23.0,-100.00,SSE,167,9.0,19.0,50,-99.99,,,0.00,46.720001,,2013-02-23 00:52:00,
2013-02-22 18:01:00,40.0,23.0,-100.00,SSE,167,9.0,19.0,50,-99.99,,,0.00,46.720001,,2013-02-23 01:01:00,
2013-02-22 18:11:00,40.0,23.0,-100.00,SSE,167,9.0,19.0,50,-99.99,,,0.00,46.720001,,2013-02-23 01:11:00,
2013-02-22 18:41:00,40.0,24.0,-100.00,SSE,168,7.0,15.0,52,-99.99,,,0.00,3.250000,,2013-02-23 01:41:00,
2013-02-22 18:52:00,40.0,24.0,-100.00,SSE,168,7.0,15.0,52,-99.99,,,0.00,3.250000,,2013-02-23 01:52:00,
2013-02-22 19:01:00,40.0,24.0,-100.00,SSE,168,7.0,15.0,52,-99.99,,,0.00,3.250000,,2013-02-23 02:01:00,
2013-02-22 19:11:00,40.0,24.0,-100.00,SSE,168,7.0,15.0,52,-99.99,,,0.00,3.250000,,2013-02-23 02:11:00,
2013-02-22 19:41:00,39.0,27.0,-100.00,SSE,167,12.0,23.0,62,-99.99,,,0.00,0.000000,,2013-02-23 02:41:00,
2013-02-22 19:52:00,39.0,27.0,-100.00,SSE,167,12.0,23.0,62,-99.99,,,0.00,0.000000,,2013-02-23 02:52:00,
2013-02-22 20:01:00,39.0,27.0,-100.00,SSE,167,12.0,23.0,62,-99.99,,,0.00,0.000000,,2013-02-23 03:01:00,
2013-02-22 20:11:00,39.0,27.0,-100.00,SSE,167,12.0,23.0,62,-99.99,,,0.00,0.000000,,2013-02-23 03:11:00,
2013-02-22 20:41:00,38.0,28.0,-100.00,SSE,167,9.0,19.0,66,-99.99,,,0.00,0.000000,,2013-02-23 03:41:00,
2013-02-22 20:52:00,38.0,28.0,-100.00,SSE,167,9.0,19.0,66,-99.99,,,0.00,0.000000,,2013-02-23 03:52:00,
2013-02-22 21:01:00,38.0,28.0,-100.00,SSE,167,9.0,19.0,66,-99.99,,,0.00,0.000000,,2013-02-23 04:01:00,
2013-02-22 21:11:00,38.0,28.0,-100.00,SSE,167,9.0,19.0,66,-99.99,,,0.00,0.000000,,2013-02-23 04:11:00,
2013-02-22 21:41:00,38.0,28.0,-100.00,SSE,165,12.0,21.0,64,-99.99,,,0.00,0.000000,,2013-02-23 04:41:00,
2013-02-22 21:52:00,38.0,28.0,-100.00,SSE,165,12.0,21.0,64,-99.99,,,0.00,0.000000,,2013-02-23 04:52:00,
2013-02-22 22:02:00,38.0,28.0,-100.00,SSE,165,12.0,21.0,64,-99.99,,,0.00,0.000000,,2013-02-23 05:02:00,
2013-02-22 22:11:00,38.0,28.0,-100.00,SSE,165,12.0,21.0,64,-99.99,,,0.00,0.000000,,2013-02-23 05:11:00,
2013-02-22 22:41:00,38.0,28.0,-100.00,SSE,163,14.0,22.0,67,-99.99,,,-99.99,0.000000,,2013-02-23 05:41:00,
2013-02-22 22:52:00,38.0,28.0,-100.00,SSE,163,14.0,22.0,67,-99.99,,,-99.99,0.000000,,2013-02-23 05:52:00,
2013-02-22 23:01:00,38.0,28.0,-100.00,SSE,163,14.0,22.0,67,-99.99,,,-99.99,0.000000,,2013-02-23 06:01:00,
2013-02-22 23:11:00,38.0,28.0,-100.00,SSE,163,14.0,22.0,67,-99.99,,,-99.99,0.000000,,2013-02-23 06:11:00,
2013-02-22 23:41:00,39.0,27.0,-100.00,SSE,167,12.0,25.0,60,-99.99,,,0.00,0.000000,,2013-02-23 06:41:00,
2013-02-22 23:52:00,39.0,27.0,-100.00,SSE,167,12.0,25.0,60,-99.99,,,0.00,0.000000,,2013-02-23 06:52:00,